Time;durP1;ratioP1;P1;durP2;ratioP2;P2;SDS_P1;SDS_P2;PMS_P1;PMS_P2;Temp;Humidity;BMP_temperature;BMP_pressure;BME280_temperature;BME280_humidity;BME280_pressure;Samples;Min_cycle;Max_cycle;Signal;HPM_P1;HPM_P2
2022/09/02 00:00:59;;;;;;;2.65;1.20;;;14.90;88.80;;;;;;4924903;29;20086;-69
2022/09/02 00:03:27;;;;;;;6.25;1.23;;;14.90;89.20;;;;;;4926227;29;20102;-70
2022/09/02 00:05:53;;;;;;;1.13;1.00;;;14.80;89.50;;;;;;4921375;29;20040;-69
2022/09/02 00:08:19;;;;;;;1.55;1.00;;;14.80;89.80;;;;;;4920318;29;20044;-70
2022/09/02 00:10:45;;;;;;;1.10;0.93;;;14.80;90.00;;;;;;4926532;29;20130;-70
2022/09/02 00:13:14;;;;;;;1.50;1.08;;;14.80;90.00;;;;;;4925136;29;20107;-69
2022/09/02 00:15:41;;;;;;;1.25;1.13;;;14.70;90.00;;;;;;4924946;28;20424;-70
2022/09/02 00:18:11;;;;;;;1.10;1.00;;;14.70;90.40;;;;;;4921765;29;20032;-70
2022/09/02 00:20:39;;;;;;;2.08;1.13;;;14.70;90.30;;;;;;4922218;29;20498;-69
2022/09/02 00:23:07;;;;;;;3.40;1.27;;;14.70;90.30;;;;;;4918061;29;20155;-70
2022/09/02 00:25:34;;;;;;;1.10;1.00;;;14.70;90.30;;;;;;4917004;29;20506;-70
2022/09/02 00:28:00;;;;;;;2.10;1.20;;;14.60;90.40;;;;;;4919718;29;20063;-70
2022/09/02 00:30:26;;;;;;;1.13;1.02;;;14.60;90.60;;;;;;4922806;29;20059;-70
2022/09/02 00:32:53;;;;;;;4.72;1.30;;;14.60;90.60;;;;;;4925844;29;20115;-70
2022/09/02 00:35:19;;;;;;;1.35;1.10;;;14.60;90.60;;;;;;4923368;29;20397;-70
2022/09/02 00:37:45;;;;;;;1.98;1.30;;;14.50;90.60;;;;;;4923342;29;20028;-70
2022/09/02 00:40:12;;;;;;;1.15;0.90;;;14.50;90.60;;;;;;4924870;29;20039;-69
2022/09/02 00:42:39;;;;;;;2.35;1.33;;;14.50;90.40;;;;;;4918694;29;20034;-69
2022/09/02 00:45:06;;;;;;;1.92;1.45;;;14.50;90.20;;;;;;4916563;29;20158;-69
2022/09/02 00:47:32;;;;;;;2.05;1.25;;;14.50;90.00;;;;;;4922563;29;20103;-69
2022/09/02 00:49:59;;;;;;;1.13;0.95;;;14.40;90.10;;;;;;4924436;29;20040;-69
2022/09/02 00:52:32;;;;;;;1.80;1.27;;;14.40;90.10;;;;;;4924049;29;20046;-69
2022/09/02 00:55:06;;;;;;;2.72;1.10;;;14.30;90.30;;;;;;4921933;29;21103;-69
2022/09/02 00:57:37;;;;;;;2.08;0.95;;;14.30;90.50;;;;;;4918108;29;20034;-69
2022/09/02 01:00:20;;;;;;;3.22;1.10;;;14.20;90.50;;;;;;4917545;29;20031;-69
2022/09/02 01:02:51;;;;;;;3.58;1.20;;;14.20;90.60;;;;;;4919676;29;20515;-71
2022/09/02 01:05:19;;;;;;;2.53;1.80;;;14.10;90.70;;;;;;4916982;29;20633;-69
2022/09/02 01:07:46;;;;;;;1.40;1.02;;;14.10;90.70;;;;;;4924185;28;20452;-69
2022/09/02 01:10:18;;;;;;;2.13;1.20;;;14.00;90.70;;;;;;4923266;29;20036;-69
2022/09/02 01:12:44;;;;;;;1.83;1.20;;;14.00;90.80;;;;;;4937613;28;20296;-69
2022/09/02 01:15:12;;;;;;;2.97;1.40;;;13.90;90.90;;;;;;4923134;29;20040;-69
2022/09/02 01:17:44;;;;;;;1.23;1.13;;;13.90;91.10;;;;;;4934239;29;20019;-69
2022/09/02 01:20:14;;;;;;;1.25;1.02;;;13.90;91.30;;;;;;4919620;29;20485;-69
2022/09/02 01:22:41;;;;;;;1.05;0.95;;;13.90;91.40;;;;;;4917452;29;20095;-69
2022/09/02 01:25:14;;;;;;;1.15;1.00;;;13.80;91.40;;;;;;4922571;29;20039;-69
2022/09/02 01:27:41;;;;;;;0.80;0.80;;;13.80;91.60;;;;;;4924530;29;20044;-69
2022/09/02 01:30:09;;;;;;;3.10;1.00;;;13.80;91.50;;;;;;4923214;29;20032;-69
2022/09/02 01:32:35;;;;;;;1.92;1.08;;;13.90;91.60;;;;;;4922374;29;20094;-69
2022/09/02 01:35:02;;;;;;;3.17;1.15;;;13.80;91.60;;;;;;4921904;29;20036;-69
2022/09/02 01:37:27;;;;;;;1.02;0.90;;;13.80;91.80;;;;;;4919353;28;20033;-69
2022/09/02 01:39:55;;;;;;;1.05;0.80;;;13.80;91.80;;;;;;4916288;29;20031;-70
2022/09/02 01:42:21;;;;;;;1.13;0.90;;;13.80;92.00;;;;;;4923684;29;20039;-70
2022/09/02 01:44:47;;;;;;;1.10;0.90;;;13.80;92.10;;;;;;4924124;29;20571;-70
2022/09/02 01:47:19;;;;;;;1.98;1.17;;;13.80;92.00;;;;;;4921998;29;20125;-69
2022/09/02 01:49:46;;;;;;;2.17;0.98;;;13.80;91.80;;;;;;4923746;29;20054;-70
2022/09/02 01:52:12;;;;;;;1.70;1.38;;;13.80;91.50;;;;;;4921133;29;20039;-69
2022/09/02 01:54:39;;;;;;;3.47;1.00;;;13.80;91.60;;;;;;4936482;28;20031;-69
2022/09/02 01:57:07;;;;;;;3.13;0.93;;;13.80;91.30;;;;;;4922613;29;20028;-69
2022/09/02 01:59:32;;;;;;;2.22;1.00;;;13.80;91.20;;;;;;4918365;29;20444;-69
2022/09/02 02:01:59;;;;;;;2.45;1.10;;;13.80;91.30;;;;;;4924376;29;20150;-69
2022/09/02 02:04:25;;;;;;;0.77;0.73;;;13.80;91.50;;;;;;4923382;29;20163;-69
2022/09/02 02:06:54;;;;;;;1.50;1.08;;;13.80;91.80;;;;;;4921361;29;20039;-69
2022/09/02 02:09:20;;;;;;;4.00;1.00;;;13.70;91.60;;;;;;4921420;29;20087;-69
2022/09/02 02:11:46;;;;;;;2.35;0.98;;;13.80;91.50;;;;;;4919923;29;20849;-69
2022/09/02 02:14:14;;;;;;;1.98;1.10;;;13.80;91.40;;;;;;4918238;29;20871;-70
2022/09/02 02:16:44;;;;;;;1.00;0.90;;;13.80;91.60;;;;;;4922160;29;20020;-69
2022/09/02 02:19:11;;;;;;;3.80;0.95;;;13.80;91.60;;;;;;4922456;29;20106;-69
2022/09/02 02:21:38;;;;;;;1.10;1.00;;;13.70;91.60;;;;;;4919884;29;20074;-69
2022/09/02 02:24:05;;;;;;;1.70;0.90;;;13.70;91.60;;;;;;4922962;29;20031;-69
2022/09/02 02:26:32;;;;;;;2.55;0.85;;;13.70;91.60;;;;;;4908428;29;20518;-69
2022/09/02 02:28:58;;;;;;;0.95;0.85;;;13.70;91.70;;;;;;4935449;28;20063;-70
2022/09/02 02:31:25;;;;;;;1.02;0.85;;;13.70;91.60;;;;;;4919757;29;20106;-69
2022/09/02 02:33:52;;;;;;;1.00;0.90;;;13.60;91.60;;;;;;4917381;29;20384;-69
2022/09/02 02:36:18;;;;;;;2.13;1.20;;;13.60;91.70;;;;;;4918374;29;20032;-70
2022/09/02 02:38:45;;;;;;;1.27;0.98;;;13.50;91.80;;;;;;4916928;29;20054;-69
2022/09/02 02:41:13;;;;;;;1.02;0.90;;;13.50;91.90;;;;;;4923106;29;20094;-70
2022/09/02 02:43:39;;;;;;;2.70;1.00;;;13.50;92.00;;;;;;4937700;28;20028;-69
2022/09/02 02:46:06;;;;;;;2.30;1.05;;;13.40;92.20;;;;;;4922253;29;20492;-69
2022/09/02 02:48:34;;;;;;;1.10;0.70;;;13.40;92.40;;;;;;4920644;29;20055;-69
2022/09/02 02:50:59;;;;;;;0.88;0.80;;;13.40;92.70;;;;;;4918670;29;20039;-69
2022/09/02 02:53:29;;;;;;;2.15;1.00;;;13.50;92.80;;;;;;4916981;29;20043;-69
2022/09/02 02:55:57;;;;;;;1.20;0.90;;;13.50;92.80;;;;;;4924219;29;20407;-69
2022/09/02 02:58:23;;;;;;;1.15;0.85;;;13.60;92.90;;;;;;4924052;29;20127;-70
2022/09/02 03:00:49;;;;;;;1.00;0.90;;;13.70;92.80;;;;;;4922733;29;20126;-70
2022/09/02 03:03:18;;;;;;;1.80;1.10;;;13.70;92.60;;;;;;4922255;29;20477;-69
2022/09/02 03:05:47;;;;;;;1.08;0.90;;;13.70;92.20;;;;;;4916844;29;20036;-70
2022/09/02 03:08:14;;;;;;;1.15;1.05;;;13.70;91.90;;;;;;4934110;29;20044;-69
2022/09/02 03:10:42;;;;;;;2.13;1.17;;;13.80;91.60;;;;;;4918178;29;20024;-69
2022/09/02 03:13:09;;;;;;;1.17;1.00;;;13.70;91.30;;;;;;4915345;29;20135;-69
2022/09/02 03:15:38;;;;;;;1.80;1.50;;;13.70;91.20;;;;;;4922877;29;20028;-69
2022/09/02 03:18:05;;;;;;;1.77;1.30;;;13.70;91.30;;;;;;4923208;29;20131;-69
2022/09/02 03:20:32;;;;;;;1.83;1.00;;;13.70;91.50;;;;;;4922358;29;20060;-69
2022/09/02 03:23:03;;;;;;;1.40;1.13;;;13.70;91.60;;;;;;4920031;29;20028;-69
2022/09/02 03:25:32;;;;;;;2.15;0.93;;;13.60;91.70;;;;;;4919905;29;20404;-70
2022/09/02 03:28:00;;;;;;;1.40;0.98;;;13.60;91.80;;;;;;4918441;29;20123;-70
2022/09/02 03:30:29;;;;;;;1.10;1.00;;;13.60;91.80;;;;;;4919441;29;20703;-69
2022/09/02 03:32:58;;;;;;;1.05;1.02;;;13.60;91.80;;;;;;4914546;29;20161;-69
2022/09/02 03:35:26;;;;;;;1.08;0.90;;;13.60;91.90;;;;;;4923446;29;20030;-70
2022/09/02 03:37:52;;;;;;;1.10;0.90;;;13.60;92.00;;;;;;4926232;29;20118;-69
2022/09/02 03:40:22;;;;;;;1.70;1.00;;;13.60;92.10;;;;;;4924115;29;20646;-70
2022/09/02 03:42:51;;;;;;;1.23;1.00;;;13.50;92.20;;;;;;4937657;29;20035;-69
2022/09/02 03:45:18;;;;;;;3.45;0.95;;;13.50;92.40;;;;;;4925611;29;20028;-69
2022/09/02 03:47:52;;;;;;;1.15;1.05;;;13.50;92.40;;;;;;4925814;29;20031;-69
2022/09/02 03:50:26;;;;;;;0.70;0.70;;;13.50;92.60;;;;;;4925950;29;20074;-69
2022/09/02 03:52:53;;;;;;;1.30;1.00;;;13.50;92.60;;;;;;4933165;28;20032;-69
2022/09/02 03:55:21;;;;;;;1.23;1.10;;;13.50;92.60;;;;;;4926203;29;20127;-69
2022/09/02 03:57:47;;;;;;;1.63;0.98;;;13.50;92.60;;;;;;4927120;29;20036;-69
2022/09/02 04:00:16;;;;;;;1.23;0.93;;;13.50;92.70;;;;;;4923038;29;20032;-68
2022/09/02 04:02:44;;;;;;;2.35;1.00;;;13.50;92.70;;;;;;4940966;28;20031;-69
2022/09/02 04:05:11;;;;;;;1.58;1.27;;;13.50;92.70;;;;;;4921124;29;20589;-70
2022/09/02 04:07:39;;;;;;;2.08;1.00;;;13.50;92.70;;;;;;4937053;29;20035;-71
2022/09/02 04:10:07;;;;;;;1.50;0.90;;;13.50;92.70;;;;;;4923935;29;20036;-69
2022/09/02 04:12:36;;;;;;;1.17;0.93;;;13.40;92.80;;;;;;4923731;28;20147;-69
2022/09/02 04:15:07;;;;;;;1.67;0.90;;;13.40;92.90;;;;;;4922521;29;20035;-69
2022/09/02 04:17:39;;;;;;;1.90;0.95;;;13.40;92.80;;;;;;4924381;29;20055;-69
2022/09/02 04:20:09;;;;;;;2.05;1.33;;;13.40;92.90;;;;;;4924077;29;20040;-70
2022/09/02 04:22:35;;;;;;;1.67;1.20;;;13.40;92.90;;;;;;4925540;29;20043;-70
2022/09/02 04:25:01;;;;;;;2.58;1.23;;;13.50;93.00;;;;;;4920385;29;20059;-69
2022/09/02 04:27:27;;;;;;;1.38;0.95;;;13.50;92.80;;;;;;4938884;28;20035;-69
2022/09/02 04:29:55;;;;;;;5.38;1.40;;;13.40;92.70;;;;;;4922885;29;20733;-70
2022/09/02 04:32:21;;;;;;;2.40;1.10;;;13.40;92.70;;;;;;4925405;29;20404;-69
2022/09/02 04:34:49;;;;;;;1.00;1.00;;;13.40;92.70;;;;;;4928414;29;20036;-69
2022/09/02 04:37:16;;;;;;;2.15;1.15;;;13.40;92.70;;;;;;4938390;28;20028;-69
2022/09/02 04:39:41;;;;;;;2.20;1.20;;;13.40;92.70;;;;;;4924669;29;20027;-70
2022/09/02 04:42:08;;;;;;;1.13;0.90;;;13.40;92.80;;;;;;4919882;29;20036;-70
2022/09/02 04:44:35;;;;;;;1.10;1.00;;;13.50;92.80;;;;;;4937096;28;20031;-70
2022/09/02 04:47:01;;;;;;;1.63;1.20;;;13.50;92.80;;;;;;4920696;29;20114;-70
2022/09/02 04:49:30;;;;;;;1.48;1.10;;;13.50;92.80;;;;;;4924961;29;20035;-69
2022/09/02 04:51:58;;;;;;;1.73;1.10;;;13.50;92.90;;;;;;4925236;29;20032;-70
2022/09/02 04:54:25;;;;;;;1.17;1.08;;;13.50;92.80;;;;;;4924346;29;20034;-70
2022/09/02 04:56:52;;;;;;;1.15;0.93;;;13.50;92.90;;;;;;4922867;29;20561;-70
2022/09/02 04:59:20;;;;;;;3.95;1.63;;;13.50;92.80;;;;;;4921062;29;20123;-70
2022/09/02 05:01:59;;;;;;;2.85;1.20;;;13.50;92.80;;;;;;4918661;29;20918;-69
2022/09/02 05:04:26;;;;;;;2.28;1.20;;;13.40;92.80;;;;;;4921991;29;20062;-70
2022/09/02 05:06:53;;;;;;;1.08;1.00;;;13.50;92.80;;;;;;4922485;29;20090;-69
2022/09/02 05:09:20;;;;;;;1.80;1.13;;;13.50;92.80;;;;;;4916922;29;20110;-70
2022/09/02 05:11:56;;;;;;;;;;;13.50;92.90;;;;;;4924893;29;20031;-70
2022/09/02 05:14:24;;;;;;;1.40;1.30;;;13.40;93.00;;;;;;4936568;28;19915;-70
2022/09/02 05:16:52;;;;;;;1.42;1.10;;;13.50;92.90;;;;;;4924435;29;20040;-70
2022/09/02 05:19:20;;;;;;;3.35;1.23;;;13.50;92.90;;;;;;4922061;29;20048;-70
2022/09/02 05:21:49;;;;;;;1.58;1.05;;;13.50;93.00;;;;;;4923535;29;20039;-70
2022/09/02 05:24:23;;;;;;;1.75;1.10;;;13.60;93.00;;;;;;4918788;29;20143;-70
2022/09/02 05:26:49;;;;;;;1.30;1.13;;;13.60;93.00;;;;;;4916915;29;20048;-70
2022/09/02 05:29:19;;;;;;;2.85;1.30;;;13.70;93.00;;;;;;4923986;29;20044;-70
2022/09/02 05:31:46;;;;;;;5.03;1.33;;;13.70;93.10;;;;;;4923909;29;20032;-70
2022/09/02 05:34:13;;;;;;;1.33;1.10;;;13.70;93.20;;;;;;4922720;29;20028;-70
2022/09/02 05:36:39;;;;;;;2.05;1.25;;;13.70;93.20;;;;;;4938433;28;20028;-70
2022/09/02 05:39:05;;;;;;;4.70;1.15;;;13.80;93.20;;;;;;4918401;29;20497;-70
2022/09/02 05:41:34;;;;;;;1.13;1.02;;;13.80;93.20;;;;;;4919257;29;20031;-70
2022/09/02 05:44:03;;;;;;;1.85;1.35;;;13.80;93.20;;;;;;4921265;29;20413;-70
2022/09/02 05:46:30;;;;;;;1.70;1.08;;;13.90;93.30;;;;;;4932977;29;20047;-70
2022/09/02 05:49:06;;;;;;;1.60;1.05;;;13.90;93.10;;;;;;4932936;29;20119;-70
2022/09/02 05:51:45;;;;;;;2.88;1.55;;;14.00;93.00;;;;;;4934399;28;20028;-70
2022/09/02 05:54:24;;;;;;;4.13;1.30;;;14.00;92.80;;;;;;4923234;29;20062;-70
2022/09/02 05:56:53;;;;;;;1.40;1.20;;;14.10;92.80;;;;;;4932896;29;20067;-70
2022/09/02 05:59:22;;;;;;;3.85;1.52;;;14.10;92.80;;;;;;4919138;29;20035;-70
2022/09/02 06:01:49;;;;;;;2.83;1.55;;;14.20;92.80;;;;;;4918288;29;20815;-70
2022/09/02 06:04:15;;;;;;;1.83;1.30;;;14.30;92.70;;;;;;4922591;29;20040;-70
2022/09/02 06:06:42;;;;;;;1.77;1.55;;;14.40;92.70;;;;;;4924279;29;20551;-70
2022/09/02 06:09:12;;;;;;;1.98;1.45;;;14.70;92.70;;;;;;4922833;29;20039;-70
2022/09/02 06:11:42;;;;;;;3.30;1.40;;;14.90;92.50;;;;;;4922609;29;20031;-70
2022/09/02 06:14:12;;;;;;;2.72;1.17;;;15.20;92.10;;;;;;4921096;29;20452;-70
2022/09/02 06:16:40;;;;;;;1.98;1.50;;;15.50;90.50;;;;;;4937627;28;20027;-71
2022/09/02 06:19:16;;;;;;;;;;;15.70;89.20;;;;;;4925060;29;20052;-70
2022/09/02 06:21:42;;;;;;;3.75;1.23;;;16.10;89.00;;;;;;4918724;29;19919;-70
2022/09/02 06:24:10;;;;;;;5.13;1.13;;;16.30;86.40;;;;;;4922143;29;20115;-70
2022/09/02 06:26:37;;;;;;;2.45;1.40;;;16.60;86.00;;;;;;4923292;29;20028;-71
2022/09/02 06:29:04;;;;;;;2.53;1.38;;;16.80;85.40;;;;;;4921082;29;20031;-70
2022/09/02 06:31:30;;;;;;;2.55;1.33;;;16.80;84.40;;;;;;4922339;29;20028;-70
2022/09/02 06:33:57;;;;;;;2.78;1.40;;;16.80;84.60;;;;;;4922351;29;20040;-70
2022/09/02 06:36:26;;;;;;;3.70;1.48;;;16.80;85.00;;;;;;4923259;29;20029;-70
2022/09/02 06:38:54;;;;;;;2.40;1.30;;;16.80;84.30;;;;;;4921386;29;20531;-70
2022/09/02 06:41:25;;;;;;;3.80;1.50;;;16.70;84.40;;;;;;4916096;29;20488;-70
2022/09/02 06:43:54;;;;;;;3.13;1.40;;;16.70;82.90;;;;;;4921456;29;20028;-70
2022/09/02 06:46:29;;;;;;;1.38;1.20;;;16.70;82.30;;;;;;4924016;29;20664;-71
2022/09/02 06:48:59;;;;;;;1.70;1.20;;;16.70;82.60;;;;;;4920995;29;20107;-70
2022/09/02 06:51:29;;;;;;;2.53;1.00;;;16.70;82.40;;;;;;4923797;29;20059;-70
2022/09/02 06:53:58;;;;;;;4.07;1.13;;;16.70;83.00;;;;;;4920414;29;20066;-70
2022/09/02 06:56:28;;;;;;;1.63;1.15;;;16.70;83.00;;;;;;4923303;29;20028;-70
2022/09/02 06:58:55;;;;;;;2.28;1.05;;;16.70;82.80;;;;;;4917161;29;20031;-70
2022/09/02 07:01:34;;;;;;;3.53;2.00;;;16.80;83.60;;;;;;4926284;29;20408;-70
2022/09/02 07:06:48;;;;;;;2.25;1.50;;;16.80;83.50;;;;;;4922393;29;20059;-70
2022/09/02 07:09:19;;;;;;;1.92;1.13;;;16.80;83.90;;;;;;4920292;29;20154;-70
2022/09/02 07:11:47;;;;;;;5.38;1.83;;;16.90;83.70;;;;;;4935767;28;20035;-71
2022/09/02 07:14:15;;;;;;;3.03;1.45;;;17.10;82.00;;;;;;4926327;29;20492;-71
2022/09/02 07:16:48;;;;;;;3.13;1.38;;;17.30;81.90;;;;;;4927263;29;20135;-72
2022/09/02 07:19:14;;;;;;;2.97;1.40;;;17.50;81.80;;;;;;4925919;29;20127;-71
2022/09/02 07:21:41;;;;;;;2.70;1.10;;;17.80;78.10;;;;;;4925584;29;20040;-70
2022/09/02 07:24:09;;;;;;;2.83;1.23;;;18.00;78.00;;;;;;4925761;29;20043;-70
2022/09/02 07:26:36;;;;;;;4.13;1.35;;;18.30;76.50;;;;;;4939851;29;20703;-70
2022/09/02 07:29:05;;;;;;;2.25;1.25;;;18.40;77.10;;;;;;4921701;29;20042;-71
2022/09/02 07:31:32;;;;;;;2.13;1.30;;;18.60;76.50;;;;;;4922662;29;20027;-70
2022/09/02 07:33:58;;;;;;;4.15;1.17;;;18.70;76.20;;;;;;4924157;29;20620;-70
2022/09/02 07:36:27;;;;;;;2.67;1.40;;;18.80;76.20;;;;;;4926139;29;20444;-70
2022/09/02 07:38:55;;;;;;;4.28;1.30;;;18.80;76.60;;;;;;4922936;29;20028;-70
2022/09/02 07:41:22;;;;;;;2.08;1.40;;;18.90;75.00;;;;;;4916957;29;20032;-71
2022/09/02 07:43:49;;;;;;;4.13;1.67;;;19.10;74.10;;;;;;4941356;28;20118;-71
2022/09/02 07:46:15;;;;;;;5.25;1.52;;;19.20;74.10;;;;;;4925169;29;20032;-71
2022/09/02 07:48:41;;;;;;;2.08;1.42;;;19.20;74.30;;;;;;4922554;29;20032;-71
2022/09/02 07:51:08;;;;;;;1.75;1.33;;;19.10;74.40;;;;;;4925314;29;20027;-71
2022/09/02 07:53:36;;;;;;;2.20;1.20;;;19.10;74.80;;;;;;4922033;29;20028;-71
2022/09/02 07:56:03;;;;;;;2.35;1.45;;;19.10;74.60;;;;;;4917361;29;20433;-71
2022/09/02 07:58:29;;;;;;;4.13;1.13;;;19.00;74.80;;;;;;4935082;28;20028;-71
2022/09/02 08:00:56;;;;;;;3.38;1.40;;;19.00;73.70;;;;;;4921908;29;20471;-71
2022/09/02 08:03:25;;;;;;;3.35;1.52;;;19.20;74.10;;;;;;4926361;29;20036;-71
2022/09/02 08:05:56;;;;;;;2.58;1.67;;;19.50;73.60;;;;;;4937503;29;20046;-70
2022/09/02 08:08:22;;;;;;;2.90;1.20;;;19.70;72.30;;;;;;4923956;29;20055;-71
2022/09/02 08:10:50;;;;;;;1.75;1.25;;;19.70;71.40;;;;;;4924369;29;20551;-71
2022/09/02 08:13:17;;;;;;;3.47;1.35;;;19.60;70.90;;;;;;4920958;29;20059;-71
2022/09/02 08:15:43;;;;;;;3.65;1.30;;;19.50;71.80;;;;;;4920285;29;20291;-71
2022/09/02 08:18:08;;;;;;;1.45;0.98;;;19.50;71.40;;;;;;4917804;29;20024;-70
2022/09/02 08:20:34;;;;;;;3.67;1.23;;;19.50;71.30;;;;;;4926165;29;20233;-70
2022/09/02 08:23:03;;;;;;;4.50;1.40;;;19.60;71.10;;;;;;4923769;29;20040;-71
2022/09/02 08:25:28;;;;;;;3.55;1.02;;;19.60;70.60;;;;;;4926662;28;20032;-71
2022/09/02 08:27:54;;;;;;;2.25;1.30;;;19.60;70.30;;;;;;4923096;29;20048;-71
2022/09/02 08:30:20;;;;;;;2.42;1.00;;;19.60;69.70;;;;;;4923047;29;20249;-71
2022/09/02 08:32:46;;;;;;;3.55;0.90;;;19.70;71.20;;;;;;4920837;29;20374;-70
2022/09/02 08:35:12;;;;;;;1.88;0.90;;;19.70;69.80;;;;;;4918774;29;20059;-70
2022/09/02 08:37:38;;;;;;;1.73;1.00;;;19.80;70.40;;;;;;4920123;29;20035;-71
2022/09/02 08:40:07;;;;;;;1.23;1.00;;;19.90;70.60;;;;;;4924534;29;20408;-71
2022/09/02 08:42:37;;;;;;;2.38;0.80;;;20.00;70.20;;;;;;4923227;29;20122;-71
2022/09/02 08:45:13;;;;;;;4.35;0.90;;;20.10;70.10;;;;;;4922929;29;20074;-71
2022/09/02 08:47:42;;;;;;;2.40;1.00;;;20.20;68.60;;;;;;4924712;29;20036;-71
2022/09/02 08:50:17;;;;;;;2.10;0.95;;;20.20;68.60;;;;;;4919802;29;20087;-71
2022/09/02 08:52:55;;;;;;;4.00;0.90;;;20.30;68.60;;;;;;4921439;29;20028;-71
2022/09/02 08:55:25;;;;;;;4.20;1.08;;;20.30;69.10;;;;;;4920272;29;20038;-70
2022/09/02 08:57:52;;;;;;;2.22;0.73;;;20.30;67.60;;;;;;4923308;29;20567;-71
2022/09/02 09:00:18;;;;;;;4.68;0.70;;;20.40;65.40;;;;;;4924757;29;20088;-71
2022/09/02 09:03:01;;;;;;;4.60;0.88;;;20.50;64.60;;;;;;4924752;29;20031;-71
2022/09/02 09:06:02;;;;;;;1.27;0.88;;;20.60;66.50;;;;;;4923421;29;20035;-71
2022/09/02 09:08:58;;;;;;;2.00;0.75;;;20.70;64.60;;;;;;4913779;29;20214;-71
2022/09/02 09:11:30;;;;;;;1.40;0.57;;;20.80;64.90;;;;;;4920336;29;20558;-71
2022/09/02 09:14:06;;;;;;;0.75;0.68;;;20.90;64.80;;;;;;4916917;29;20036;-71
2022/09/02 09:16:58;;;;;;;1.58;0.75;;;21.00;63.20;;;;;;4919567;29;20116;-71
2022/09/02 09:19:49;;;;;;;3.22;0.70;;;21.10;62.50;;;;;;4924710;29;20436;-71
2022/09/02 09:22:19;;;;;;;3.53;0.50;;;21.20;61.30;;;;;;4921717;29;20032;-71
2022/09/02 09:24:47;;;;;;;1.90;0.70;;;21.20;63.00;;;;;;4920700;29;20077;-71
2022/09/02 09:27:16;;;;;;;3.10;0.82;;;21.30;63.10;;;;;;4919587;29;20048;-69
2022/09/02 09:29:42;;;;;;;3.25;0.95;;;21.40;63.20;;;;;;4919857;29;20036;-71
2022/09/02 09:32:53;;;;;;;1.77;0.50;;;21.30;59.50;;;;;;4916725;29;20103;-70
2022/09/02 09:35:20;;;;;;;1.45;0.70;;;21.20;59.50;;;;;;4921428;29;20492;-71
2022/09/02 09:37:51;;;;;;;1.35;0.45;;;21.20;59.90;;;;;;4925322;28;20032;-71
2022/09/02 09:40:22;;;;;;;0.70;0.60;;;21.30;58.90;;;;;;4922705;29;20035;-71
2022/09/02 09:43:09;;;;;;;2.72;0.93;;;21.30;57.40;;;;;;4918818;29;20036;-71
2022/09/02 09:45:44;;;;;;;1.75;0.57;;;21.40;59.00;;;;;;4919948;29;20114;-71
2022/09/02 09:48:21;;;;;;;0.45;0.38;;;21.50;58.20;;;;;;4918374;29;20685;-71
2022/09/02 09:50:54;;;;;;;1.17;0.60;;;21.80;58.40;;;;;;4916889;29;20040;-71
2022/09/02 09:53:22;;;;;;;1.30;0.85;;;22.20;57.20;;;;;;4921316;29;20035;-71
2022/09/02 09:56:14;;;;;;;3.45;0.50;;;22.40;57.60;;;;;;4925035;28;20126;-71
2022/09/02 09:58:40;;;;;;;2.08;0.75;;;22.40;57.70;;;;;;4923628;29;20063;-71
2022/09/02 10:01:19;;;;;;;2.13;0.88;;;22.50;58.70;;;;;;4920452;29;20059;-71
2022/09/02 10:03:51;;;;;;;1.25;0.70;;;22.50;57.60;;;;;;4921822;29;20083;-71
2022/09/02 10:06:34;;;;;;;0.95;0.43;;;22.60;57.10;;;;;;4919232;29;20123;-71
2022/09/02 10:09:24;;;;;;;0.68;0.60;;;22.50;56.30;;;;;;4916167;29;20066;-70
2022/09/02 10:12:05;;;;;;;1.02;0.52;;;22.60;55.90;;;;;;4917424;29;20130;-71
2022/09/02 10:14:47;;;;;;;2.10;0.60;;;22.60;54.00;;;;;;4924689;29;20115;-71
2022/09/02 10:17:17;;;;;;;1.73;0.63;;;22.50;54.70;;;;;;4924003;29;20668;-71
2022/09/02 10:20:03;;;;;;;1.05;0.60;;;22.50;54.70;;;;;;4922432;29;20035;-71
2022/09/02 10:22:34;;;;;;;2.05;0.60;;;22.50;55.60;;;;;;4921015;28;20031;-71
2022/09/02 10:25:35;;;;;;;1.13;0.80;;;22.50;55.40;;;;;;4918097;29;20107;-71
2022/09/02 10:28:29;;;;;;;2.75;0.50;;;22.70;54.80;;;;;;4905563;29;20056;-70
2022/09/02 10:31:01;;;;;;;1.75;0.47;;;22.70;54.50;;;;;;4920383;29;20039;-70
2022/09/02 10:34:03;;;;;;;1.17;0.63;;;22.80;55.40;;;;;;4919925;29;20572;-70
2022/09/02 10:36:35;;;;;;;0.85;0.52;;;22.70;52.40;;;;;;4918814;29;20046;-71
2022/09/02 10:39:22;;;;;;;0.30;0.30;;;22.80;54.20;;;;;;4920845;29;20520;-71
2022/09/02 10:41:51;;;;;;;1.23;0.65;;;22.90;53.30;;;;;;4919778;29;20035;-70
2022/09/02 10:44:35;;;;;;;1.95;0.52;;;22.80;53.20;;;;;;4920964;29;20200;-71
2022/09/02 10:47:14;;;;;;;1.20;0.63;;;22.80;52.70;;;;;;4915166;29;20032;-70
2022/09/02 10:50:12;;;;;;;0.32;0.30;;;22.80;52.90;;;;;;4918584;29;20043;-70
2022/09/02 10:52:44;;;;;;;1.27;0.50;;;22.90;53.50;;;;;;4923820;28;20052;-70
2022/09/02 10:55:53;;;;;;;1.45;0.55;;;23.00;51.90;;;;;;4921461;29;20035;-71
2022/09/02 10:58:42;;;;;;;0.60;0.40;;;22.90;51.60;;;;;;4921532;29;20039;-70
2022/09/02 11:01:32;;;;;;;0.45;0.38;;;22.90;50.50;;;;;;4917835;29;20507;-70
2022/09/02 11:04:02;;;;;;;1.08;0.47;;;23.00;51.00;;;;;;4918090;29;20147;-70
2022/09/02 11:06:30;;;;;;;0.68;0.40;;;23.10;50.40;;;;;;4917796;29;20047;-71
2022/09/02 11:09:13;;;;;;;0.52;0.40;;;23.00;51.50;;;;;;4918103;29;20046;-70
2022/09/02 11:12:05;;;;;;;0.90;0.40;;;22.90;51.00;;;;;;4918302;29;20381;-71
2022/09/02 11:14:55;;;;;;;0.50;0.50;;;22.80;51.40;;;;;;4912753;29;20143;-70
2022/09/02 11:17:40;;;;;;;4.20;0.40;;;22.90;51.80;;;;;;4921166;29;20066;-71
2022/09/02 11:20:29;;;;;;;2.17;0.40;;;22.90;50.60;;;;;;4918085;29;20032;-71
2022/09/02 11:23:26;;;;;;;0.40;0.40;;;23.00;51.00;;;;;;4918793;29;20043;-70
2022/09/02 11:25:54;;;;;;;;;;;23.20;50.40;;;;;;4918513;29;20059;-70
2022/09/02 11:28:38;;;;;;;0.77;0.50;;;23.50;49.90;;;;;;4920733;29;19911;-71
2022/09/02 11:31:07;;;;;;;0.55;0.30;;;23.50;47.10;;;;;;4920753;29;20028;-70
2022/09/02 11:33:48;;;;;;;1.58;0.40;;;23.40;48.60;;;;;;4922913;29;20035;-70
2022/09/02 11:36:15;;;;;;;2.05;0.35;;;23.30;49.00;;;;;;4920161;29;20196;-70
2022/09/02 11:39:04;;;;;;;2.25;0.57;;;23.30;49.30;;;;;;4916983;29;20032;-70
2022/09/02 11:42:06;;;;;;;0.73;0.60;;;23.20;49.90;;;;;;4918638;29;20047;-71
2022/09/02 11:44:52;;;;;;;0.50;0.50;;;23.20;48.50;;;;;;4917778;29;20051;-71
2022/09/02 11:47:41;;;;;;;0.75;0.57;;;23.10;50.00;;;;;;4920027;29;20122;-71
2022/09/02 11:50:21;;;;;;;1.40;1.08;;;23.00;49.30;;;;;;4921183;29;20032;-71
2022/09/02 11:53:18;;;;;;;2.05;0.60;;;23.00;50.30;;;;;;4919922;29;20134;-71
2022/09/02 11:55:55;;;;;;;2.10;0.65;;;22.90;49.90;;;;;;4919362;29;20484;-70
2022/09/02 11:58:41;;;;;;;0.45;0.40;;;22.70;50.10;;;;;;4922203;29;20043;-71
2022/09/02 12:01:21;;;;;;;;;;;22.60;50.30;;;;;;4919582;29;20859;-70
2022/09/02 12:04:02;;;;;;;0.50;0.50;;;22.60;50.50;;;;;;4921833;28;19915;-71
2022/09/02 12:06:28;;;;;;;0.77;0.40;;;22.60;51.00;;;;;;4924088;29;20031;-70
2022/09/02 12:08:54;;;;;;;1.35;0.73;;;22.60;50.60;;;;;;4926411;29;20507;-71
2022/09/02 12:11:44;;;;;;;1.55;0.70;;;22.70;50.10;;;;;;4923806;29;20035;-70
2022/09/02 12:14:30;;;;;;;1.00;0.52;;;22.70;49.90;;;;;;4922670;29;20039;-71
2022/09/02 12:17:01;;;;;;;0.50;0.50;;;22.70;48.80;;;;;;4921625;29;20551;-71
2022/09/02 12:19:41;;;;;;;0.63;0.60;;;22.70;49.60;;;;;;4922620;29;20057;-70
2022/09/02 12:22:17;;;;;;;2.05;0.70;;;22.80;48.30;;;;;;4933150;29;20040;-70
2022/09/02 12:24:55;;;;;;;1.30;0.52;;;22.80;49.30;;;;;;4920544;29;20481;-71
2022/09/02 12:27:35;;;;;;;0.50;0.47;;;22.90;49.30;;;;;;4926115;29;20113;-70
2022/09/02 12:30:04;;;;;;;1.73;0.60;;;23.00;49.70;;;;;;4923210;29;20040;-70
2022/09/02 12:32:45;;;;;;;2.42;0.60;;;23.10;50.40;;;;;;4923840;29;20032;-70
2022/09/02 12:35:33;;;;;;;2.60;0.60;;;23.10;47.30;;;;;;4921114;29;20433;-71
2022/09/02 12:38:11;;;;;;;3.58;0.50;;;23.20;47.50;;;;;;4919244;29;20457;-70
2022/09/02 12:40:52;;;;;;;3.83;0.70;;;23.30;48.10;;;;;;4920211;29;20027;-70
2022/09/02 12:43:46;;;;;;;0.57;0.50;;;23.40;49.30;;;;;;4922786;29;20039;-70
2022/09/02 12:46:27;;;;;;;1.00;0.60;;;23.40;46.80;;;;;;4925030;29;20527;-71
2022/09/02 12:49:34;;;;;;;0.98;0.45;;;23.40;48.20;;;;;;4924994;29;20036;-70
2022/09/02 12:52:09;;;;;;;2.10;0.60;;;23.40;45.90;;;;;;4922016;29;20408;-71
2022/09/02 12:54:42;;;;;;;0.60;0.60;;;23.40;46.80;;;;;;4922939;29;20070;-70
2022/09/02 12:57:10;;;;;;;3.90;0.60;;;23.40;48.80;;;;;;4919379;29;20039;-70
2022/09/02 12:59:40;;;;;;;0.98;0.57;;;23.50;46.80;;;;;;4920738;28;20063;-71
2022/09/02 13:02:29;;;;;;;0.82;0.70;;;23.40;46.90;;;;;;4920371;29;20374;-71
2022/09/02 13:05:01;;;;;;;0.50;0.50;;;23.40;47.60;;;;;;4924611;29;20448;-71
2022/09/02 13:07:41;;;;;;;0.50;0.50;;;23.40;45.20;;;;;;4919462;29;20057;-71
2022/09/02 13:10:07;;;;;;;0.45;0.40;;;23.60;47.30;;;;;;4921492;29;20031;-71
2022/09/02 13:13:01;;;;;;;2.47;0.50;;;23.60;47.50;;;;;;4922113;29;20024;-71
2022/09/02 13:15:43;;;;;;;0.60;0.50;;;23.60;46.60;;;;;;4920321;29;20032;-71